Terminal Aerodrome Forecast
Issued by NWS

Home | Current Version | Previous Version | Text Only | Print | Product List | Glossary On
Versions: 1 2 3 4 5 6 7 8 9 10 11 12 13 14 15 16 17 18 19 20 21 22 23 24 25
000
FTUS41 KOKX 310200 AAA
TAFGON
TAF AMD
KGON 310230Z 3103/3124 18009KT P6SM FEW025 SCT040
     FM310400 20005KT P6SM SCT025 SCT040
      TEMPO 3106/3109 SCT015 BKN025
     FM310900 21005KT 3SM BR BKN010
     FM311500 21009KT P6SM BKN020
     FM311800 18010KT P6SM SCT020 SCT040=

USA.gov is the U.S. government's official web portal to all federal, state and local government web resources and services.